createdAt,value
2018-07-05T00:10:00.879Z,4.2
2018-07-05T00:30:01.189Z,6.0
2018-07-05T00:50:01.320Z,7.0
2018-07-05T01:10:00.613Z,5.0
2018-07-05T01:30:05.764Z,9.4
2018-07-05T01:50:00.970Z,4.0
2018-07-05T02:10:01.165Z,5.0
2018-07-05T02:30:00.431Z,5.0
2018-07-05T02:50:00.577Z,4.0
2018-07-05T03:10:00.687Z,3.6
2018-07-05T03:30:01.082Z,4.4
2018-07-05T03:50:01.204Z,4.0
2018-07-05T04:10:00.449Z,5.0
2018-07-05T04:30:00.585Z,6.0
2018-07-05T04:50:00.841Z,5.0
2018-07-05T05:10:00.975Z,5.0
2018-07-05T05:30:01.455Z,5.0
2018-07-05T05:50:00.354Z,4.0
2018-07-05T06:10:00.624Z,3.0
2018-07-05T06:30:00.862Z,2.2
2018-07-05T06:50:01.109Z,2.0
2018-07-05T07:10:01.230Z,2.0
2018-07-05T07:30:00.503Z,3.0
2018-07-05T07:50:00.653Z,2.0
2018-07-05T08:10:00.974Z,2.6
2018-07-05T08:30:01.136Z,3.0
2018-07-05T08:50:01.240Z,2.0
2018-07-05T09:10:00.470Z,3.0
2018-07-05T09:30:00.659Z,2.6
2018-07-05T09:50:00.913Z,3.0
2018-07-05T10:10:01.038Z,4.0
2018-07-05T10:30:01.308Z,6.0
2018-07-05T10:50:00.515Z,4.0
2018-07-05T11:10:00.771Z,4.0
2018-07-05T11:30:00.938Z,4.0
2018-07-05T11:50:01.169Z,4.0
2018-07-05T12:10:01.336Z,3.2
2018-07-05T12:30:00.440Z,3.0
2018-07-05T12:50:00.697Z,3.2
2018-07-05T13:10:00.801Z,3.0
2018-07-05T13:30:01.052Z,2.0
2018-07-05T13:50:01.247Z,2.0
2018-07-05T14:10:00.436Z,3.2
2018-07-05T14:30:00.717Z,4.0
2018-07-05T14:50:00.949Z,2.0
2018-07-05T15:10:01.057Z,3.0
2018-07-05T15:30:01.366Z,2.0
2018-07-05T15:50:00.480Z,4.4
2018-07-05T16:10:01.017Z,4.0
2018-07-05T16:30:00.892Z,3.0
2018-07-05T16:50:01.130Z,4.0
2018-07-05T17:10:00.992Z,4.0
2018-07-05T17:30:00.512Z,3.0
2018-07-05T17:50:00.637Z,3.8
2018-07-05T18:10:00.891Z,4.0
2018-07-05T18:30:01.140Z,2.0
2018-07-05T18:50:01.258Z,3.0
2018-07-05T19:10:00.528Z,2.0
2018-07-05T19:30:00.681Z,4.0
2018-07-05T19:50:00.946Z,3.0
2018-07-05T20:10:01.182Z,2.6
2018-07-05T20:30:01.538Z,4.6
2018-07-05T20:50:00.514Z,6.8
2018-07-05T21:10:00.684Z,9.0
2018-07-05T21:30:00.934Z,9.6
2018-07-05T21:50:01.068Z,11.6
2018-07-05T22:10:01.323Z,11.4
2018-07-05T22:30:00.567Z,9.0
2018-07-05T22:50:00.719Z,4.8
2018-07-05T23:10:00.935Z,8.0
2018-07-05T23:30:01.058Z,8.0
2018-07-05T23:50:01.389Z,5.0
